Time;durP1;ratioP1;P1;durP2;ratioP2;P2;SDS_P1;SDS_P2;PMS_P1;PMS_P2;Temp;Humidity;BMP_temperature;BMP_pressure;BME280_temperature;BME280_humidity;BME280_pressure;Samples;Min_cycle;Max_cycle;Signal;HPM_P1;HPM_P2
2022/07/21 00:00:05;;;;;;;16.65;10.80;;;20.80;99.90;;;;;;5050878;28;20258;-66
2022/07/21 00:02:30;;;;;;;12.60;10.55;;;20.70;99.90;;;;;;5050097;28;20263;-65
2022/07/21 00:04:56;;;;;;;14.02;10.05;;;20.60;99.90;;;;;;5050752;28;20256;-66
2022/07/21 00:07:21;;;;;;;15.35;10.15;;;20.60;99.90;;;;;;5050276;28;20201;-66
2022/07/21 00:09:47;;;;;;;12.95;9.95;;;20.50;99.90;;;;;;5050498;28;20182;-66
2022/07/21 00:12:12;;;;;;;15.52;11.20;;;20.50;99.90;;;;;;5050422;28;20204;-65
2022/07/21 00:14:38;;;;;;;15.75;10.65;;;20.50;99.90;;;;;;5050351;28;20174;-66
2022/07/21 00:17:04;;;;;;;14.38;10.98;;;20.50;99.90;;;;;;5050386;28;20238;-66
2022/07/21 00:19:29;;;;;;;20.35;13.38;;;20.50;99.90;;;;;;5049951;28;20173;-66
2022/07/21 00:21:55;;;;;;;20.38;14.18;;;20.50;99.90;;;;;;5050264;28;20551;-65
2022/07/21 00:24:20;;;;;;;13.82;11.23;;;20.60;99.90;;;;;;5049117;28;20186;-65
2022/07/21 00:26:46;;;;;;;14.23;11.18;;;20.70;99.90;;;;;;5050146;28;20555;-66
2022/07/21 00:29:11;;;;;;;14.85;10.65;;;20.70;99.90;;;;;;5050477;28;20181;-66
2022/07/21 00:31:37;;;;;;;16.17;10.13;;;20.70;99.90;;;;;;5050248;28;20185;-65
2022/07/21 00:34:03;;;;;;;14.70;10.77;;;20.70;99.90;;;;;;5053935;28;20224;-65
2022/07/21 00:36:28;;;;;;;16.10;10.35;;;20.80;99.90;;;;;;5054296;28;20185;-66
2022/07/21 00:38:54;;;;;;;16.13;10.30;;;20.80;99.90;;;;;;5054334;28;20185;-66
2022/07/21 00:41:19;;;;;;;13.07;10.27;;;20.90;99.90;;;;;;5054113;28;20201;-67
2022/07/21 00:43:45;;;;;;;14.90;10.50;;;20.90;99.90;;;;;;5054339;28;20686;-66
2022/07/21 00:46:10;;;;;;;14.88;10.57;;;21.00;99.90;;;;;;5053976;28;20648;-66
2022/07/21 00:48:36;;;;;;;13.07;9.98;;;21.00;99.90;;;;;;5054210;28;20217;-66
2022/07/21 00:51:02;;;;;;;12.40;9.85;;;21.10;99.90;;;;;;5053346;28;20514;-66
2022/07/21 00:53:27;;;;;;;18.63;10.35;;;21.10;99.90;;;;;;5054075;28;20217;-66
2022/07/21 00:55:53;;;;;;;13.38;9.68;;;21.10;99.90;;;;;;5052261;28;20193;-66
2022/07/21 00:58:19;;;;;;;15.68;10.68;;;21.10;99.90;;;;;;5054062;28;20264;-67
2022/07/21 01:00:45;;;;;;;12.40;9.98;;;21.10;99.90;;;;;;5053735;28;20181;-66
2022/07/21 01:03:10;;;;;;;14.95;10.18;;;21.10;99.90;;;;;;5053851;28;20186;-66
2022/07/21 01:05:36;;;;;;;16.02;10.55;;;21.00;99.90;;;;;;5054084;28;20177;-66
2022/07/21 01:08:04;;;;;;;14.73;10.23;;;20.90;99.90;;;;;;5053807;28;20607;-66
2022/07/21 01:10:31;;;;;;;14.52;10.32;;;20.80;99.90;;;;;;5053898;28;20208;-66
2022/07/21 01:12:58;;;;;;;13.88;10.00;;;20.70;99.90;;;;;;5054280;28;20181;-66
2022/07/21 01:15:23;;;;;;;17.80;10.80;;;20.70;99.90;;;;;;5052253;28;20173;-66
2022/07/21 01:17:49;;;;;;;13.82;9.77;;;20.60;99.90;;;;;;5052748;28;20277;-66
2022/07/21 01:20:17;;;;;;;16.55;10.30;;;20.60;99.90;;;;;;5053093;28;20610;-66
2022/07/21 01:22:45;;;;;;;14.48;10.23;;;20.50;99.90;;;;;;5053462;28;20224;-66
2022/07/21 01:25:11;;;;;;;12.30;9.52;;;20.40;99.90;;;;;;5053338;28;20264;-66
2022/07/21 01:27:38;;;;;;;14.50;10.88;;;20.40;99.90;;;;;;5050276;28;20294;-66
2022/07/21 01:30:09;;;;;;;13.15;10.07;;;20.40;99.90;;;;;;5053579;28;20185;-66
2022/07/21 01:32:36;;;;;;;13.77;9.40;;;20.40;99.90;;;;;;5052646;28;20186;-65
2022/07/21 01:35:03;;;;;;;14.80;10.25;;;20.30;99.90;;;;;;5052956;28;20256;-66
2022/07/21 01:37:30;;;;;;;14.70;10.13;;;20.30;99.90;;;;;;5053229;28;20185;-66
2022/07/21 01:42:51;;;;;;;14.63;10.27;;;20.20;99.90;;;;;;5032288;28;20216;-66
2022/07/21 01:45:17;;;;;;;14.00;9.52;;;20.10;99.90;;;;;;5052584;28;20184;-66
2022/07/21 01:47:42;;;;;;;13.13;9.70;;;20.10;99.90;;;;;;5049415;28;20209;-66
2022/07/21 01:50:08;;;;;;;14.95;10.48;;;20.10;99.90;;;;;;5051052;28;20177;-66
2022/07/21 01:52:34;;;;;;;12.48;10.05;;;20.10;99.90;;;;;;5050352;28;20209;-66
2022/07/21 01:54:59;;;;;;;13.95;9.68;;;20.10;99.90;;;;;;5052303;28;20181;-66
2022/07/21 01:57:25;;;;;;;15.13;9.77;;;20.00;99.90;;;;;;5052303;28;20700;-66
2022/07/21 01:59:50;;;;;;;15.43;10.15;;;20.00;99.90;;;;;;5052418;28;20204;-66
2022/07/21 02:02:20;;;;;;;13.05;10.00;;;20.00;99.90;;;;;;5052929;28;20185;-66
2022/07/21 02:04:47;;;;;;;11.80;9.48;;;20.00;99.90;;;;;;5052834;28;20205;-66
2022/07/21 02:07:12;;;;;;;16.55;9.88;;;20.00;99.90;;;;;;5052263;28;20223;-66
2022/07/21 02:09:38;;;;;;;13.30;9.65;;;20.00;99.90;;;;;;5052905;28;20170;-67
2022/07/21 02:12:04;;;;;;;16.33;10.45;;;20.00;99.90;;;;;;5052266;28;20539;-66
2022/07/21 02:14:29;;;;;;;12.93;9.52;;;20.00;99.90;;;;;;5052624;28;20667;-66
2022/07/21 02:16:55;;;;;;;13.05;9.70;;;20.10;99.90;;;;;;5052031;28;20261;-66
2022/07/21 02:19:20;;;;;;;12.43;9.23;;;20.10;99.90;;;;;;5051373;28;20683;-66
2022/07/21 02:21:46;;;;;;;15.70;9.57;;;20.10;99.90;;;;;;5052114;28;20213;-66
2022/07/21 02:24:11;;;;;;;13.40;10.13;;;20.20;99.90;;;;;;5052485;28;20227;-66
2022/07/21 02:26:37;;;;;;;11.63;9.05;;;20.10;99.90;;;;;;5052013;28;20184;-66
2022/07/21 02:29:03;;;;;;;13.07;10.13;;;20.20;99.90;;;;;;5052437;28;20221;-66
2022/07/21 02:31:28;;;;;;;17.83;10.20;;;20.20;99.90;;;;;;5051806;28;20204;-66
2022/07/21 02:33:54;;;;;;;15.48;9.80;;;20.20;99.90;;;;;;5051547;28;20208;-66
2022/07/21 02:36:19;;;;;;;12.95;9.18;;;20.20;99.90;;;;;;5052078;28;20252;-66
2022/07/21 02:38:45;;;;;;;14.15;8.95;;;20.10;99.90;;;;;;5052246;28;20646;-66
2022/07/21 02:41:10;;;;;;;11.95;9.48;;;20.10;99.90;;;;;;5050677;28;20284;-66
2022/07/21 02:43:36;;;;;;;15.30;9.45;;;20.10;99.90;;;;;;5051579;28;20197;-66
2022/07/21 02:46:01;;;;;;;13.95;9.95;;;20.10;99.90;;;;;;5052141;28;20632;-66
2022/07/21 02:48:27;;;;;;;12.95;9.50;;;20.20;99.90;;;;;;5051751;28;20228;-66
2022/07/21 02:50:52;;;;;;;12.57;9.57;;;20.20;99.90;;;;;;5051649;28;20209;-65
2022/07/21 02:53:19;;;;;;;15.60;9.45;;;20.20;99.90;;;;;;5051353;28;20671;-66
2022/07/21 02:55:50;;;;;;;11.90;8.82;;;20.20;99.90;;;;;;5050454;28;20178;-66
2022/07/21 02:58:19;;;;;;;15.70;9.85;;;20.20;99.90;;;;;;5051240;28;20189;-65
2022/07/21 03:00:51;;;;;;;14.43;8.95;;;20.10;99.90;;;;;;5050846;28;20187;-66
2022/07/21 03:03:17;;;;;;;12.63;8.60;;;20.10;99.90;;;;;;5050826;28;20231;-66
2022/07/21 03:05:43;;;;;;;14.00;9.57;;;20.00;99.90;;;;;;5050418;28;20544;-66
2022/07/21 03:08:09;;;;;;;13.93;9.80;;;20.00;99.90;;;;;;5050385;28;20315;-65
2022/07/21 03:10:36;;;;;;;13.15;10.30;;;20.00;99.90;;;;;;5050931;28;20189;-65
2022/07/21 03:13:01;;;;;;;16.08;10.40;;;20.00;99.90;;;;;;5050809;28;20564;-65
2022/07/21 03:15:27;;;;;;;14.10;10.70;;;20.00;99.90;;;;;;5050986;28;20181;-65
2022/07/21 03:17:57;;;;;;;14.52;10.02;;;20.00;99.90;;;;;;5051260;28;20648;-65
2022/07/21 03:20:23;;;;;;;16.80;10.30;;;20.20;99.90;;;;;;5050900;28;20181;-65
2022/07/21 03:22:49;;;;;;;14.60;11.45;;;20.40;99.90;;;;;;5051376;28;20224;-65
2022/07/21 03:25:15;;;;;;;85.28;57.38;;;20.60;99.90;;;;;;5051167;28;20177;-65
2022/07/21 03:27:40;;;;;;;91.82;59.35;;;20.70;99.90;;;;;;5051312;28;20217;-66
2022/07/21 03:30:07;;;;;;;28.58;19.48;;;20.90;99.90;;;;;;5051237;28;20180;-65
2022/07/21 03:32:33;;;;;;;26.60;19.08;;;21.00;99.90;;;;;;5051322;28;20652;-65
2022/07/21 03:34:59;;;;;;;31.13;21.60;;;21.20;99.90;;;;;;5051114;28;20185;-65
2022/07/21 03:37:25;;;;;;;26.30;19.02;;;21.20;99.90;;;;;;5051154;28;20173;-65
2022/07/21 03:39:50;;;;;;;20.15;14.85;;;21.30;99.90;;;;;;5051378;28;20185;-64
2022/07/21 03:42:16;;;;;;;19.08;12.20;;;21.40;99.90;;;;;;5051038;28;20178;-65
2022/07/21 03:44:41;;;;;;;17.63;10.60;;;21.30;99.90;;;;;;5050298;28;20721;-65
2022/07/21 03:47:07;;;;;;;14.75;11.50;;;21.10;99.90;;;;;;5050872;28;20209;-67
2022/07/21 03:49:33;;;;;;;14.68;11.40;;;21.00;99.90;;;;;;5050333;28;20212;-65
2022/07/21 03:51:58;;;;;;;14.75;11.38;;;20.90;99.90;;;;;;5051482;28;20216;-63
2022/07/21 03:54:24;;;;;;;13.93;10.63;;;20.80;99.90;;;;;;5049714;28;20541;-62
2022/07/21 03:56:49;;;;;;;18.02;12.65;;;20.70;99.90;;;;;;5046592;28;20189;-63
2022/07/21 03:59:15;;;;;;;16.15;10.75;;;20.70;99.90;;;;;;5050327;28;20176;-63
2022/07/21 04:01:40;;;;;;;17.98;11.05;;;20.60;99.90;;;;;;5050770;28;20181;-63
2022/07/21 04:04:06;;;;;;;13.55;10.98;;;20.50;99.90;;;;;;5051062;28;20177;-63
2022/07/21 04:06:31;;;;;;;14.00;11.23;;;20.50;99.90;;;;;;5051861;28;20644;-63
2022/07/21 04:08:57;;;;;;;15.35;10.90;;;20.50;99.90;;;;;;5055426;28;20304;-64
2022/07/21 04:11:22;;;;;;;13.77;10.60;;;20.50;99.90;;;;;;5054571;28;20663;-63
2022/07/21 04:13:48;;;;;;;18.15;11.80;;;20.70;99.90;;;;;;5053748;28;20552;-66
2022/07/21 04:16:13;;;;;;;15.98;11.18;;;20.90;99.90;;;;;;5054465;28;20180;-66
2022/07/21 04:18:39;;;;;;;15.30;10.88;;;21.00;99.90;;;;;;5054119;28;20208;-67
2022/07/21 04:21:04;;;;;;;24.17;16.42;;;21.10;99.90;;;;;;5054596;28;20273;-66
2022/07/21 04:23:31;;;;;;;62.08;41.08;;;21.20;99.90;;;;;;5053899;28;20181;-69
2022/07/21 04:25:57;;;;;;;202.63;140.40;;;21.30;99.90;;;;;;5054317;28;20189;-67
2022/07/21 04:28:22;;;;;;;40.22;28.25;;;21.30;99.90;;;;;;5054222;28;20221;-65
2022/07/21 04:30:48;;;;;;;15.05;11.45;;;21.40;99.90;;;;;;5054668;28;20186;-67
2022/07/21 04:33:13;;;;;;;13.32;10.43;;;21.30;99.90;;;;;;5053726;28;20235;-66
2022/07/21 04:35:39;;;;;;;14.88;10.88;;;21.10;99.90;;;;;;5053270;28;20621;-67
2022/07/21 04:38:04;;;;;;;15.07;11.13;;;20.90;99.90;;;;;;5053358;28;20188;-65
2022/07/21 04:40:30;;;;;;;14.25;11.02;;;20.80;99.90;;;;;;5053514;28;20663;-65
2022/07/21 04:42:55;;;;;;;14.35;10.30;;;20.80;99.90;;;;;;5054560;28;20181;-65
2022/07/21 04:45:21;;;;;;;15.85;12.05;;;20.80;99.90;;;;;;5054868;28;20169;-65
2022/07/21 04:47:52;;;;;;;14.45;10.68;;;20.90;99.90;;;;;;5054208;28;20205;-65
2022/07/21 04:50:20;;;;;;;16.55;11.38;;;21.00;99.90;;;;;;5054266;28;20656;-65
2022/07/21 04:52:46;;;;;;;18.00;11.18;;;21.00;99.90;;;;;;5054299;28;20652;-65
2022/07/21 04:55:13;;;;;;;16.83;11.10;;;21.00;99.90;;;;;;5054418;28;20633;-65
2022/07/21 04:57:40;;;;;;;17.50;10.90;;;20.90;99.90;;;;;;5054363;28;20693;-65
2022/07/21 05:00:09;;;;;;;14.68;11.38;;;20.90;99.90;;;;;;5054256;28;20177;-65
2022/07/21 05:02:35;;;;;;;16.25;11.75;;;21.00;99.90;;;;;;5054115;28;20216;-65
2022/07/21 05:05:01;;;;;;;16.90;12.65;;;20.90;99.90;;;;;;5054302;28;20205;-65
2022/07/21 05:07:27;;;;;;;17.15;11.93;;;20.80;99.90;;;;;;5054176;28;20631;-65
2022/07/21 05:09:52;;;;;;;16.33;11.98;;;20.70;99.90;;;;;;5054266;28;20177;-65
2022/07/21 05:12:18;;;;;;;14.63;11.23;;;20.60;99.90;;;;;;5054104;28;20177;-65
2022/07/21 05:14:43;;;;;;;14.60;11.40;;;20.70;99.90;;;;;;5054526;28;20209;-64
2022/07/21 05:17:09;;;;;;;16.73;11.60;;;20.70;99.90;;;;;;5053920;28;20188;-65
2022/07/21 05:19:34;;;;;;;16.50;11.35;;;20.60;99.90;;;;;;5053203;28;20177;-65
2022/07/21 05:22:00;;;;;;;17.02;12.43;;;20.60;99.90;;;;;;5053912;28;20378;-64
2022/07/21 05:24:25;;;;;;;19.58;12.55;;;20.60;99.90;;;;;;5052585;28;20178;-65
2022/07/21 05:26:51;;;;;;;18.33;12.32;;;20.50;99.90;;;;;;5053876;28;20182;-65
2022/07/21 05:29:16;;;;;;;17.15;12.32;;;20.50;99.90;;;;;;5053502;28;20209;-65
2022/07/21 05:31:42;;;;;;;17.08;13.23;;;20.50;99.90;;;;;;5053762;28;20170;-65
2022/07/21 05:34:07;;;;;;;18.15;12.65;;;20.40;99.90;;;;;;5053698;28;20589;-65
2022/07/21 05:36:33;;;;;;;16.73;12.75;;;20.30;99.90;;;;;;5053602;28;20177;-65
2022/07/21 05:38:58;;;;;;;16.65;12.68;;;20.40;99.90;;;;;;5053671;28;20174;-65
2022/07/21 05:41:24;;;;;;;19.45;12.65;;;20.40;99.90;;;;;;5053593;28;20181;-65
2022/07/21 05:43:49;;;;;;;16.70;12.50;;;20.70;99.90;;;;;;5053624;28;20173;-64
2022/07/21 05:46:15;;;;;;;16.88;11.85;;;21.20;99.90;;;;;;5053307;28;20636;-65
2022/07/21 05:48:41;;;;;;;15.65;11.50;;;21.50;99.90;;;;;;5053470;28;20245;-65
2022/07/21 05:51:06;;;;;;;13.93;11.10;;;21.50;99.90;;;;;;5053315;28;20535;-65
2022/07/21 05:53:32;;;;;;;14.90;10.77;;;21.50;99.90;;;;;;5048637;28;20197;-65
2022/07/21 05:55:57;;;;;;;17.85;11.88;;;21.60;99.90;;;;;;5033204;28;20701;-65
2022/07/21 05:58:24;;;;;;;18.63;11.25;;;22.20;99.90;;;;;;5033248;28;20186;-65
2022/07/21 06:01:07;;;;;;;12.52;9.60;;;22.60;99.90;;;;;;5052913;28;20192;-65
2022/07/21 06:03:34;;;;;;;12.27;9.23;;;23.30;99.90;;;;;;5053202;28;20239;-66
2022/07/21 06:06:00;;;;;;;12.85;9.52;;;24.00;99.90;;;;;;5053142;28;20165;-65
2022/07/21 06:08:25;;;;;;;11.07;8.85;;;24.80;99.90;;;;;;5052876;28;20227;-65
2022/07/21 06:10:51;;;;;;;10.52;8.95;;;25.30;99.90;;;;;;5053013;28;20177;-66
2022/07/21 06:13:16;;;;;;;14.82;10.05;;;25.70;99.90;;;;;;5052755;28;20633;-66
2022/07/21 06:15:42;;;;;;;12.57;8.88;;;26.00;99.90;;;;;;5052921;28;20165;-65
2022/07/21 06:18:07;;;;;;;10.43;8.52;;;26.20;99.90;;;;;;5052880;28;20173;-65
2022/07/21 06:20:33;;;;;;;10.77;8.27;;;26.40;99.90;;;;;;5052750;28;20253;-65
2022/07/21 06:22:58;;;;;;;11.48;8.20;;;26.50;99.90;;;;;;5052837;28;20189;-65
2022/07/21 06:25:24;;;;;;;11.63;8.13;;;26.60;99.90;;;;;;5052605;28;20170;-66
2022/07/21 06:27:49;;;;;;;10.77;7.93;;;26.80;99.90;;;;;;5052707;28;20208;-66
2022/07/21 06:30:15;;;;;;;9.60;7.40;;;27.30;99.90;;;;;;5052539;28;20173;-66
2022/07/21 06:32:40;;;;;;;10.48;7.90;;;27.80;99.90;;;;;;5052672;28;20239;-66
2022/07/21 06:35:06;;;;;;;10.45;7.82;;;28.60;99.90;;;;;;5052662;28;20170;-66
2022/07/21 06:37:32;;;;;;;10.40;7.28;;;29.20;99.30;;;;;;5052433;28;20181;-66
2022/07/21 06:39:58;;;;;;;13.73;8.32;;;29.10;98.30;;;;;;5052433;28;20173;-66
2022/07/21 06:42:23;;;;;;;9.30;6.60;;;29.00;97.70;;;;;;5052376;28;20712;-66
2022/07/21 06:44:49;;;;;;;7.65;6.07;;;28.80;97.50;;;;;;5052489;28;20178;-66
2022/07/21 06:47:14;;;;;;;8.20;5.88;;;29.20;96.50;;;;;;5052170;28;20173;-65
2022/07/21 06:49:40;;;;;;;7.97;6.03;;;29.70;95.20;;;;;;5052400;28;20188;-65
2022/07/21 06:52:05;;;;;;;7.57;5.65;;;30.00;94.60;;;;;;5052224;28;20205;-65
2022/07/21 06:54:31;;;;;;;6.38;5.78;;;30.20;93.20;;;;;;5052248;28;20524;-65
2022/07/21 06:56:56;;;;;;;9.25;5.93;;;30.30;92.90;;;;;;5052168;28;20285;-65
2022/07/21 06:59:22;;;;;;;7.90;5.95;;;30.40;91.70;;;;;;5051971;28;20232;-66
2022/07/21 07:01:47;;;;;;;6.18;5.57;;;30.40;91.40;;;;;;5052252;28;20224;-65
2022/07/21 07:04:13;;;;;;;7.40;6.03;;;30.30;90.40;;;;;;5051990;28;20196;-65
2022/07/21 07:06:38;;;;;;;7.30;5.68;;;30.00;90.40;;;;;;5051944;28;20526;-65
2022/07/21 07:09:04;;;;;;;7.03;5.70;;;30.00;90.90;;;;;;5051850;28;20228;-66
2022/07/21 07:11:29;;;;;;;7.63;5.75;;;30.40;90.20;;;;;;5051866;28;20169;-65
2022/07/21 07:13:55;;;;;;;6.65;5.30;;;30.70;88.80;;;;;;5051938;28;20173;-65
2022/07/21 07:16:20;;;;;;;6.05;5.40;;;30.70;86.20;;;;;;5051798;28;20173;-65
2022/07/21 07:18:46;;;;;;;6.28;5.13;;;30.60;86.60;;;;;;5051944;28;20276;-65
2022/07/21 07:21:11;;;;;;;6.40;5.07;;;30.50;86.40;;;;;;5051479;28;20302;-65
2022/07/21 07:23:38;;;;;;;6.95;4.88;;;31.10;85.90;;;;;;5051745;28;20185;-65
2022/07/21 07:26:04;;;;;;;6.05;5.38;;;31.30;82.30;;;;;;5051633;28;20535;-64
2022/07/21 07:28:29;;;;;;;7.00;5.28;;;30.90;81.60;;;;;;5051610;28;20216;-65
2022/07/21 07:30:55;;;;;;;9.32;5.35;;;31.50;83.60;;;;;;5051638;28;20701;-65
2022/07/21 07:33:21;;;;;;;7.30;6.03;;;31.90;82.00;;;;;;5051667;28;20640;-65
2022/07/21 07:35:47;;;;;;;7.65;5.63;;;32.00;82.30;;;;;;5051562;28;20184;-65
2022/07/21 07:38:14;;;;;;;7.55;5.97;;;31.90;80.50;;;;;;5051579;28;20181;-65
2022/07/21 07:40:40;;;;;;;5.85;5.18;;;31.80;82.00;;;;;;5051556;28;20169;-65
2022/07/21 07:43:06;;;;;;;9.57;6.13;;;31.80;80.60;;;;;;5051402;28;20277;-65
2022/07/21 07:45:32;;;;;;;8.05;5.78;;;31.30;80.40;;;;;;5051607;28;20177;-66
2022/07/21 07:47:57;;;;;;;7.05;5.90;;;31.20;80.50;;;;;;5051637;28;20236;-65
2022/07/21 07:50:23;;;;;;;7.97;5.70;;;31.00;81.30;;;;;;5051470;28;20181;-65
2022/07/21 07:52:48;;;;;;;6.88;5.63;;;31.10;83.10;;;;;;5051572;28;20196;-65
2022/07/21 07:55:14;;;;;;;7.60;5.90;;;30.50;80.90;;;;;;5051413;28;20568;-65
2022/07/21 07:57:42;;;;;;;8.82;5.45;;;30.00;82.50;;;;;;5051573;28;20180;-65
2022/07/21 08:00:14;;;;;;;8.95;5.28;;;29.50;83.90;;;;;;5051383;28;20180;-65
2022/07/21 08:02:40;;;;;;;10.18;5.93;;;29.00;84.80;;;;;;5051439;28;20559;-66
2022/07/21 08:05:07;;;;;;;7.30;5.60;;;28.10;86.50;;;;;;5051294;28;20282;-65
2022/07/21 08:07:33;;;;;;;6.45;4.90;;;27.30;90.00;;;;;;5051504;28;20206;-66
2022/07/21 08:09:58;;;;;;;8.95;5.38;;;26.60;91.50;;;;;;5051497;28;20184;-66
2022/07/21 08:12:25;;;;;;;8.60;5.35;;;26.20;93.10;;;;;;5051328;28;20173;-66
2022/07/21 08:14:50;;;;;;;8.00;5.53;;;26.70;93.80;;;;;;5051302;28;20177;-66
2022/07/21 08:17:16;;;;;;;5.80;5.10;;;27.30;93.10;;;;;;5051193;28;20182;-65
2022/07/21 08:19:42;;;;;;;6.63;5.15;;;28.00;91.90;;;;;;5051415;28;20178;-65
2022/07/21 08:22:08;;;;;;;6.47;5.40;;;28.50;91.30;;;;;;5050896;28;20229;-66
2022/07/21 08:24:33;;;;;;;9.10;4.97;;;28.90;90.40;;;;;;5051111;28;20183;-66
2022/07/21 08:26:59;;;;;;;6.93;5.32;;;29.50;89.10;;;;;;5051110;28;20201;-66
2022/07/21 08:29:24;;;;;;;7.00;4.93;;;30.30;88.70;;;;;;5050995;28;20225;-66
2022/07/21 08:31:50;;;;;;;6.40;4.57;;;30.80;83.60;;;;;;5051213;28;20180;-66
2022/07/21 08:34:15;;;;;;;5.65;4.60;;;30.90;80.60;;;;;;5050816;28;20534;-66
2022/07/21 08:36:41;;;;;;;5.22;4.60;;;30.80;80.90;;;;;;5051125;28;20186;-66
2022/07/21 08:39:07;;;;;;;6.03;4.30;;;30.70;81.60;;;;;;5050949;28;20177;-66
2022/07/21 08:41:32;;;;;;;6.18;5.20;;;31.10;80.70;;;;;;5051077;28;20174;-66
2022/07/21 08:43:58;;;;;;;6.65;4.60;;;31.20;81.90;;;;;;5051104;28;20192;-66
2022/07/21 08:46:23;;;;;;;6.15;5.30;;;31.60;78.00;;;;;;5050954;28;20272;-66
2022/07/21 08:48:50;;;;;;;5.75;4.93;;;32.20;76.30;;;;;;5051058;28;20205;-65
2022/07/21 08:51:17;;;;;;;6.03;4.68;;;32.80;74.50;;;;;;5050869;28;20176;-65
2022/07/21 08:53:46;;;;;;;10.38;7.50;;;32.90;71.40;;;;;;5052402;28;20196;-66
2022/07/21 08:56:13;;;;;;;6.60;4.45;;;32.50;69.20;;;;;;5054534;28;20180;-66
2022/07/21 08:58:39;;;;;;;5.68;4.60;;;32.30;69.90;;;;;;5054494;28;20182;-66
2022/07/21 09:01:04;;;;;;;7.32;4.07;;;31.80;71.70;;;;;;5054288;28;20169;-65
2022/07/21 09:03:32;;;;;;;6.28;4.38;;;31.50;72.20;;;;;;5054392;28;20649;-66
2022/07/21 09:06:14;;;;;;;6.03;4.25;;;31.60;74.20;;;;;;5054238;28;20178;-66
2022/07/21 09:08:42;;;;;;;6.38;5.18;;;32.00;71.30;;;;;;5054360;28;20213;-66
2022/07/21 09:11:35;;;;;;;7.13;4.13;;;31.90;71.00;;;;;;5054166;28;20185;-66
2022/07/21 09:14:06;;;;;;;5.93;4.10;;;31.50;70.60;;;;;;5053928;28;20640;-66
2022/07/21 09:16:33;;;;;;;5.45;4.28;;;31.00;69.70;;;;;;5054180;28;20173;-66
2022/07/21 09:18:59;;;;;;;5.18;4.20;;;30.60;71.40;;;;;;5054084;28;20203;-66
2022/07/21 09:21:25;;;;;;;7.10;4.30;;;31.00;73.50;;;;;;5053688;28;20692;-66
2022/07/21 09:23:51;;;;;;;6.72;4.03;;;31.40;71.90;;;;;;5054020;28;20185;-66
2022/07/21 09:26:16;;;;;;;4.38;3.80;;;31.40;69.80;;;;;;5053809;28;20178;-66
2022/07/21 09:28:42;;;;;;;5.95;4.13;;;31.20;69.10;;;;;;5053992;28;20230;-65
2022/07/21 09:31:11;;;;;;;4.80;4.30;;;31.00;70.00;;;;;;5053835;28;20204;-66
2022/07/21 09:33:43;;;;;;;4.60;4.15;;;30.50;71.20;;;;;;5053783;28;20177;-66
2022/07/21 09:36:17;;;;;;;4.68;3.88;;;30.30;72.20;;;;;;5053520;28;20181;-66
2022/07/21 09:38:54;;;;;;;5.32;4.00;;;29.90;70.90;;;;;;5053831;28;20217;-66
2022/07/21 09:41:22;;;;;;;5.80;4.25;;;29.40;73.60;;;;;;5053531;28;20173;-65
2022/07/21 09:43:53;;;;;;;6.50;4.30;;;28.70;76.00;;;;;;5053727;28;20192;-65
2022/07/21 09:46:21;;;;;;;4.60;4.15;;;28.60;77.20;;;;;;5053505;28;20242;-65
2022/07/21 09:48:50;;;;;;;4.43;3.95;;;29.00;78.20;;;;;;5053593;28;20239;-66
2022/07/21 09:51:28;;;;;;;7.22;4.53;;;29.40;76.10;;;;;;5053200;28;20168;-65
2022/07/21 09:54:08;;;;;;;6.53;4.57;;;29.80;75.80;;;;;;5033500;28;20181;-66
2022/07/21 09:56:37;;;;;;;6.13;4.38;;;30.20;75.60;;;;;;5033449;28;20170;-65
2022/07/21 09:59:04;;;;;;;5.00;4.40;;;30.40;73.00;;;;;;5038394;28;20165;-66
2022/07/21 10:01:30;;;;;;;6.97;3.80;;;30.60;74.30;;;;;;5053341;28;20268;-65
2022/07/21 10:03:58;;;;;;;6.38;4.32;;;30.70;71.40;;;;;;5052940;28;20227;-65
2022/07/21 10:06:29;;;;;;;5.68;3.97;;;30.70;72.20;;;;;;5053239;28;20215;-65
2022/07/21 10:08:56;;;;;;;6.32;4.13;;;30.70;71.40;;;;;;5053065;28;20733;-65
2022/07/21 10:11:22;;;;;;;4.90;4.40;;;30.60;71.30;;;;;;5053033;28;20235;-65
2022/07/21 10:13:48;;;;;;;4.72;3.80;;;30.50;72.30;;;;;;5053069;28;20177;-65
2022/07/21 10:16:14;;;;;;;3.92;3.53;;;30.50;72.00;;;;;;5051645;28;20184;-66
2022/07/21 10:18:59;;;;;;;4.05;3.63;;;30.50;71.60;;;;;;5053136;28;20216;-65
2022/07/21 10:21:46;;;;;;;4.40;3.92;;;30.70;71.50;;;;;;5052784;28;20221;-65
2022/07/21 10:24:13;;;;;;;5.88;3.90;;;30.80;70.20;;;;;;5052856;28;20181;-65
2022/07/21 10:26:58;;;;;;;6.88;4.25;;;30.70;69.30;;;;;;5052819;28;20205;-65
2022/07/21 10:30:03;;;;;;;5.10;3.70;;;30.80;70.20;;;;;;5052726;28;20227;-65
2022/07/21 10:32:36;;;;;;;6.85;4.40;;;31.10;69.40;;;;;;5052451;28;20177;-65
2022/07/21 10:35:28;;;;;;;7.45;3.83;;;31.60;66.90;;;;;;5052681;28;20243;-65
2022/07/21 10:37:55;;;;;;;4.68;3.90;;;31.70;67.70;;;;;;5051288;28;20178;-65
2022/07/21 10:40:20;;;;;;;4.47;3.83;;;31.40;68.20;;;;;;5052588;28;20180;-65
2022/07/21 10:43:06;;;;;;;6.63;4.80;;;30.90;68.70;;;;;;5052672;28;20181;-65
2022/07/21 10:45:33;;;;;;;6.70;4.13;;;31.00;70.00;;;;;;5052463;28;20537;-65
2022/07/21 10:48:01;;;;;;;6.13;3.78;;;31.10;71.80;;;;;;5052396;28;20204;-65
2022/07/21 10:50:40;;;;;;;5.47;3.83;;;31.10;68.70;;;;;;5052248;28;20237;-65
2022/07/21 10:53:16;;;;;;;3.50;3.20;;;31.10;68.30;;;;;;5052236;28;20272;-65
2022/07/21 10:55:53;;;;;;;4.25;3.30;;;31.10;65.80;;;;;;5052337;28;20644;-65
2022/07/21 10:58:41;;;;;;;4.95;3.60;;;31.10;66.00;;;;;;5052192;28;20211;-65
2022/07/21 11:01:15;;;;;;;3.90;3.28;;;31.00;65.70;;;;;;5032239;28;20174;-65
2022/07/21 11:03:42;;;;;;;4.13;3.25;;;30.80;65.80;;;;;;5032342;28;20683;-65
2022/07/21 11:06:17;;;;;;;3.60;3.00;;;30.90;65.90;;;;;;5032085;28;20633;-65
2022/07/21 11:08:45;;;;;;;7.22;3.10;;;30.90;65.30;;;;;;5032140;28;20290;-65
2022/07/21 11:11:13;;;;;;;2.75;2.55;;;31.20;63.40;;;;;;5032162;28;20174;-65
2022/07/21 11:14:02;;;;;;;6.30;2.83;;;31.30;63.30;;;;;;5032149;28;20178;-65
2022/07/21 11:16:56;;;;;;;6.05;2.72;;;31.60;63.10;;;;;;5031346;28;20265;-65
2022/07/21 11:19:37;;;;;;;3.22;2.92;;;32.00;64.30;;;;;;5032031;28;21055;-65
2022/07/21 11:22:13;;;;;;;4.05;3.03;;;32.30;60.90;;;;;;5031818;28;20633;-65
2022/07/21 11:24:44;;;;;;;4.13;3.17;;;32.50;61.60;;;;;;5032166;28;20292;-65
2022/07/21 11:27:13;;;;;;;3.60;2.85;;;32.70;61.20;;;;;;5031772;28;20649;-65
2022/07/21 11:29:41;;;;;;;4.35;3.13;;;32.80;59.70;;;;;;5031943;28;20194;-65
2022/07/21 11:32:08;;;;;;;3.53;3.17;;;32.60;59.00;;;;;;5031773;28;20695;-65
2022/07/21 11:34:42;;;;;;;3.58;3.25;;;31.80;59.20;;;;;;5031892;28;20201;-65
2022/07/21 11:37:08;;;;;;;5.88;3.25;;;31.20;59.60;;;;;;5031682;28;20664;-64
2022/07/21 11:39:35;;;;;;;3.88;3.17;;;30.60;61.90;;;;;;5031837;28;20185;-65
2022/07/21 11:42:05;;;;;;;4.03;3.00;;;30.50;63.80;;;;;;5031752;28;20182;-65
2022/07/21 11:44:31;;;;;;;4.75;3.22;;;30.50;63.90;;;;;;5031651;28;20178;-65
2022/07/21 11:46:59;;;;;;;3.35;3.05;;;30.70;62.30;;;;;;5031716;28;20184;-65
2022/07/21 11:49:25;;;;;;;4.22;3.38;;;30.80;62.30;;;;;;5031541;28;20317;-65
2022/07/21 11:52:01;;;;;;;3.30;2.88;;;30.90;61.30;;;;;;5035186;28;20620;-65
2022/07/21 11:54:45;;;;;;;4.63;3.35;;;31.20;61.40;;;;;;5051625;28;20227;-65
2022/07/21 11:57:11;;;;;;;5.53;3.30;;;31.20;60.80;;;;;;5051550;28;20250;-64
2022/07/21 11:59:40;;;;;;;3.55;2.90;;;31.60;62.20;;;;;;5051430;28;20182;-64
2022/07/21 12:02:14;;;;;;;4.35;3.22;;;31.70;59.70;;;;;;5051624;28;20179;-64
2022/07/21 12:05:06;;;;;;;3.40;3.10;;;31.70;58.80;;;;;;5051608;28;20181;-65
2022/07/21 12:07:40;;;;;;;3.72;3.28;;;31.60;57.90;;;;;;5051400;28;20298;-65
2022/07/21 12:10:12;;;;;;;5.97;2.90;;;31.30;59.00;;;;;;5051438;28;20560;-65
2022/07/21 12:12:43;;;;;;;3.72;3.33;;;31.10;59.50;;;;;;5051364;28;20177;-65
2022/07/21 12:15:14;;;;;;;4.72;3.17;;;31.00;59.50;;;;;;5051463;28;20525;-64
2022/07/21 12:17:53;;;;;;;3.67;3.17;;;30.60;59.30;;;;;;5051509;28;20258;-65
2022/07/21 12:20:27;;;;;;;3.33;3.00;;;31.00;61.50;;;;;;5051291;28;20751;-64
2022/07/21 12:22:55;;;;;;;3.80;3.33;;;31.40;61.00;;;;;;5051325;28;20218;-64
2022/07/21 12:25:36;;;;;;;3.45;3.03;;;31.40;59.40;;;;;;5051229;28;20174;-64
2022/07/21 12:28:02;;;;;;;3.97;3.22;;;31.50;60.50;;;;;;5053090;28;20564;-64
2022/07/21 12:30:36;;;;;;;3.80;2.90;;;31.50;59.90;;;;;;5055028;28;20524;-64
2022/07/21 12:33:05;;;;;;;5.20;3.03;;;31.80;60.50;;;;;;5055063;28;20181;-64
2022/07/21 12:35:32;;;;;;;3.33;3.03;;;31.70;58.10;;;;;;5055083;28;20230;-64
2022/07/21 12:38:13;;;;;;;5.40;3.28;;;31.70;58.50;;;;;;5054858;28;20188;-64
2022/07/21 12:40:47;;;;;;;3.25;3.00;;;31.80;57.20;;;;;;5055036;28;20262;-64
2022/07/21 12:43:18;;;;;;;3.25;2.90;;;31.50;58.20;;;;;;5054774;28;20644;-64